Time;durP1;ratioP1;P1;durP2;ratioP2;P2;SDS_P1;SDS_P2;PMS_P1;PMS_P2;Temp;Humidity;BMP_temperature;BMP_pressure;BME280_temperature;BME280_humidity;BME280_pressure;Samples;Min_cycle;Max_cycle;Signal;HPM_P1;HPM_P2
2021/11/25 00:01:05;;;;;;;19.60;15.67;;;3.50;99.90;;;;;;5032642;28;20469;-81
2021/11/25 00:03:31;;;;;;;20.20;16.23;;;3.50;99.90;;;;;;5032503;28;20791;-81
2021/11/25 00:05:57;;;;;;;21.93;15.07;;;3.50;99.90;;;;;;5032310;28;20199;-81
2021/11/25 00:08:23;;;;;;;20.67;13.83;;;3.50;99.90;;;;;;5032318;28;20198;-81
2021/11/25 00:10:49;;;;;;;17.10;12.50;;;3.60;99.90;;;;;;5032691;28;20194;-81
2021/11/25 00:13:15;;;;;;;15.40;13.23;;;3.50;99.90;;;;;;5032733;28;20430;-81
2021/11/25 00:15:42;;;;;;;14.77;11.73;;;3.40;99.90;;;;;;5032627;28;21007;-81
2021/11/25 00:18:08;;;;;;;14.10;10.60;;;3.40;99.90;;;;;;5032531;28;20426;-81
2021/11/25 00:20:34;;;;;;;17.90;11.23;;;3.40;99.90;;;;;;5032720;28;20418;-81
2021/11/25 00:23:00;;;;;;;13.13;9.80;;;3.40;99.90;;;;;;5032630;28;20417;-81
2021/11/25 00:25:26;;;;;;;15.43;10.80;;;3.40;99.90;;;;;;5032257;28;20794;-81
2021/11/25 00:27:52;;;;;;;14.80;9.70;;;3.40;99.90;;;;;;5032341;28;20422;-81
2021/11/25 00:30:18;;;;;;;17.20;11.73;;;3.40;99.90;;;;;;5032134;28;20423;-81
2021/11/25 00:32:44;;;;;;;14.93;10.90;;;3.40;99.90;;;;;;5032286;28;20191;-81
2021/11/25 00:35:12;;;;;;;14.63;9.87;;;3.50;99.90;;;;;;5032372;28;20954;-81
2021/11/25 00:37:38;;;;;;;15.30;11.27;;;3.50;99.90;;;;;;5031984;28;20434;-81
2021/11/25 00:40:10;;;;;;;13.60;10.07;;;3.50;99.90;;;;;;5031917;28;20629;-81
2021/11/25 00:42:36;;;;;;;13.50;10.30;;;3.50;99.90;;;;;;5031753;28;20468;-81
2021/11/25 00:45:03;;;;;;;14.17;10.67;;;3.60;99.90;;;;;;5031847;28;20422;-81
2021/11/25 00:47:28;;;;;;;14.40;9.70;;;3.60;99.90;;;;;;5031987;28;20512;-81
2021/11/25 00:49:54;;;;;;;16.53;11.27;;;3.70;99.90;;;;;;5031914;28;20429;-81
2021/11/25 00:52:20;;;;;;;17.97;10.20;;;3.70;99.90;;;;;;5031758;28;20280;-81
2021/11/25 00:54:46;;;;;;;13.90;10.50;;;3.70;99.90;;;;;;5032151;28;20441;-81
2021/11/25 00:57:12;;;;;;;18.20;11.30;;;3.70;99.90;;;;;;5031677;28;20446;-81
2021/11/25 00:59:37;;;;;;;18.77;11.67;;;3.80;99.90;;;;;;5031781;28;20690;-81
2021/11/25 01:02:04;;;;;;;16.07;12.23;;;3.80;99.90;;;;;;5031968;28;20502;-81
2021/11/25 01:04:30;;;;;;;14.57;11.80;;;3.70;99.90;;;;;;5031744;28;20242;-82
2021/11/25 01:06:56;;;;;;;12.80;10.70;;;3.80;99.90;;;;;;5031915;28;20672;-81
2021/11/25 01:09:21;;;;;;;16.87;11.47;;;3.80;99.90;;;;;;5031669;28;20180;-81
2021/11/25 01:11:48;;;;;;;16.47;11.90;;;3.90;99.90;;;;;;5031844;28;20423;-81
2021/11/25 01:14:15;;;;;;;15.03;10.63;;;3.80;99.90;;;;;;5031546;28;20430;-81
2021/11/25 01:16:41;;;;;;;15.67;10.90;;;4.00;99.90;;;;;;5031149;28;20446;-81
2021/11/25 01:19:07;;;;;;;11.57;9.80;;;4.00;99.90;;;;;;5031341;28;20470;-81
2021/11/25 01:21:33;;;;;;;16.23;11.00;;;4.00;99.90;;;;;;5031717;28;20794;-81
2021/11/25 01:23:59;;;;;;;14.63;10.67;;;4.10;99.90;;;;;;5031309;28;20451;-81
2021/11/25 01:26:25;;;;;;;16.13;10.73;;;4.10;99.90;;;;;;5031374;28;20196;-81
2021/11/25 01:28:50;;;;;;;12.30;10.10;;;4.00;99.90;;;;;;5031263;28;20513;-82
2021/11/25 01:31:16;;;;;;;12.37;9.53;;;3.90;99.90;;;;;;5031227;28;20225;-81
2021/11/25 01:33:42;;;;;;;9.73;7.40;;;3.80;99.90;;;;;;5031226;28;20537;-81
2021/11/25 01:36:08;;;;;;;12.20;8.17;;;3.70;99.90;;;;;;5031806;28;20345;-81
2021/11/25 01:38:34;;;;;;;13.00;9.43;;;3.60;99.90;;;;;;5031046;28;20207;-81
2021/11/25 01:41:00;;;;;;;13.50;9.13;;;3.50;99.90;;;;;;5031594;28;20415;-81
2021/11/25 01:43:27;;;;;;;12.13;9.40;;;3.40;99.90;;;;;;5031427;28;20432;-81
2021/11/25 01:45:56;;;;;;;11.87;9.33;;;3.40;99.90;;;;;;5031431;28;20283;-81
2021/11/25 01:48:23;;;;;;;16.13;9.67;;;3.30;99.90;;;;;;5031094;28;20478;-81
2021/11/25 01:50:50;;;;;;;11.80;9.23;;;3.20;99.90;;;;;;5031067;28;20429;-81
2021/11/25 01:53:18;;;;;;;12.00;9.63;;;3.20;99.90;;;;;;5030913;28;20926;-81
2021/11/25 01:55:44;;;;;;;15.53;10.17;;;3.10;99.90;;;;;;5030858;28;20446;-81
2021/11/25 01:58:12;;;;;;;12.63;9.03;;;3.10;99.90;;;;;;5031142;28;20430;-81
2021/11/25 02:00:47;;;;;;;12.57;9.30;;;3.10;99.90;;;;;;5031159;28;20422;-82
2021/11/25 02:03:13;;;;;;;10.57;7.80;;;3.30;99.90;;;;;;5030861;28;20425;-82
2021/11/25 02:05:39;;;;;;;9.53;8.33;;;3.30;99.90;;;;;;5030861;28;20469;-82
2021/11/25 02:08:05;;;;;;;16.30;9.70;;;3.30;99.90;;;;;;5031815;28;20418;-81
2021/11/25 02:10:33;;;;;;;9.60;8.43;;;3.40;99.90;;;;;;5032496;28;20415;-82
2021/11/25 02:13:00;;;;;;;11.90;9.20;;;3.50;99.90;;;;;;5032695;28;20413;-82
2021/11/25 02:15:26;;;;;;;11.03;8.53;;;3.50;99.90;;;;;;5032935;28;20422;-82
2021/11/25 02:17:52;;;;;;;14.00;9.63;;;3.60;99.90;;;;;;5034454;28;20768;-82
2021/11/25 02:20:18;;;;;;;11.27;9.63;;;3.60;99.90;;;;;;5040418;28;20438;-82
2021/11/25 02:22:44;;;;;;;12.20;8.37;;;3.70;99.90;;;;;;5041990;28;20419;-82
2021/11/25 02:25:13;;;;;;;16.67;9.30;;;3.70;99.90;;;;;;5041095;28;20449;-82
2021/11/25 02:27:40;;;;;;;11.63;8.10;;;3.70;99.90;;;;;;5040915;28;20415;-81
2021/11/25 02:30:07;;;;;;;11.33;8.50;;;3.70;99.90;;;;;;5040240;28;20411;-81
2021/11/25 02:32:37;;;;;;;11.10;8.67;;;3.70;99.90;;;;;;5040635;28;20449;-82
2021/11/25 02:35:09;;;;;;;11.47;8.27;;;3.70;99.90;;;;;;5040245;28;20437;-82
2021/11/25 02:37:34;;;;;;;11.90;8.13;;;3.80;99.90;;;;;;5039875;28;20442;-82
2021/11/25 02:40:12;;;;;;;11.80;8.40;;;3.80;99.90;;;;;;5039327;28;20462;-81
2021/11/25 02:42:38;;;;;;;14.97;8.13;;;3.80;99.90;;;;;;5038814;28;20189;-82
2021/11/25 02:45:04;;;;;;;16.43;7.87;;;3.90;99.90;;;;;;5039267;28;20458;-81
2021/11/25 02:47:30;;;;;;;11.77;7.97;;;3.90;99.90;;;;;;5038583;28;20334;-82
2021/11/25 02:49:55;;;;;;;9.60;8.00;;;3.90;99.90;;;;;;5038030;28;20857;-82
2021/11/25 02:52:25;;;;;;;11.73;8.60;;;3.90;99.90;;;;;;5038129;28;20184;-81
2021/11/25 02:54:51;;;;;;;11.17;8.50;;;3.90;99.90;;;;;;5037924;28;20205;-81
2021/11/25 02:57:17;;;;;;;12.30;8.10;;;3.90;99.90;;;;;;5036390;28;20452;-82
2021/11/25 02:59:43;;;;;;;12.60;8.93;;;3.90;99.90;;;;;;5036753;28;20474;-82
2021/11/25 03:02:09;;;;;;;12.90;11.60;;;3.70;99.90;;;;;;5038136;28;20426;-82
2021/11/25 03:04:35;;;;;;;13.00;9.30;;;3.70;99.90;;;;;;5037163;28;20238;-81
2021/11/25 03:07:01;;;;;;;14.00;9.83;;;3.70;99.90;;;;;;5038927;28;20445;-82
2021/11/25 03:09:26;;;;;;;12.77;9.30;;;3.80;99.90;;;;;;5038946;28;20263;-81
2021/11/25 03:11:53;;;;;;;12.80;8.63;;;3.90;99.90;;;;;;5038824;28;20453;-82
2021/11/25 03:14:19;;;;;;;11.67;9.53;;;4.00;99.90;;;;;;5038822;28;20306;-81
2021/11/25 03:16:45;;;;;;;11.70;8.90;;;4.10;99.90;;;;;;5038660;28;20488;-81
2021/11/25 03:19:12;;;;;;;13.20;9.10;;;4.10;99.90;;;;;;5039924;28;20467;-82
2021/11/25 03:21:39;;;;;;;12.40;8.93;;;4.20;99.90;;;;;;5037897;28;20424;-82
2021/11/25 03:24:05;;;;;;;13.13;8.87;;;4.20;99.90;;;;;;5037355;28;20423;-81
2021/11/25 03:26:31;;;;;;;10.20;8.60;;;4.20;99.90;;;;;;5037419;28;20442;-82
2021/11/25 03:29:00;;;;;;;9.87;7.87;;;4.10;99.90;;;;;;5038028;28;20808;-82
2021/11/25 03:31:30;;;;;;;11.20;7.60;;;4.20;99.90;;;;;;5037372;28;20489;-82
2021/11/25 03:33:58;;;;;;;13.07;9.83;;;4.30;99.90;;;;;;5036772;28;20946;-82
2021/11/25 03:36:25;;;;;;;9.90;8.10;;;4.40;99.90;;;;;;5036579;28;20805;-82
2021/11/25 03:38:51;;;;;;;12.87;9.17;;;4.40;99.90;;;;;;5035985;28;20483;-82
2021/11/25 03:41:18;;;;;;;10.53;7.90;;;4.40;99.90;;;;;;5036372;28;20469;-82
2021/11/25 03:43:45;;;;;;;9.83;7.53;;;4.40;99.90;;;;;;5036424;28;20888;-82
2021/11/25 03:46:11;;;;;;;10.13;7.63;;;4.40;99.90;;;;;;5035856;28;20450;-82
2021/11/25 03:48:37;;;;;;;9.87;8.07;;;4.40;99.90;;;;;;5035745;28;20504;-82
2021/11/25 03:51:07;;;;;;;10.90;7.60;;;4.40;99.90;;;;;;5035578;28;20423;-82
2021/11/25 03:53:34;;;;;;;11.13;8.17;;;4.40;99.90;;;;;;5035600;28;20431;-82
2021/11/25 03:56:00;;;;;;;8.33;7.00;;;4.30;99.90;;;;;;5034821;28;20533;-81
2021/11/25 03:58:26;;;;;;;11.20;8.47;;;4.30;99.90;;;;;;5035144;28;20835;-82
2021/11/25 04:00:53;;;;;;;10.00;7.47;;;4.40;99.90;;;;;;5035645;28;20446;-82
2021/11/25 04:03:21;;;;;;;9.27;8.03;;;4.30;99.90;;;;;;5035767;28;20795;-82
2021/11/25 04:05:47;;;;;;;10.60;8.33;;;4.30;99.90;;;;;;5034636;28;20756;-81
2021/11/25 04:08:13;;;;;;;8.63;7.50;;;4.30;99.90;;;;;;5034796;28;20429;-82
2021/11/25 04:10:39;;;;;;;12.17;8.00;;;4.30;99.90;;;;;;5034547;28;20419;-82
2021/11/25 04:13:05;;;;;;;10.43;7.13;;;4.40;99.90;;;;;;5034572;28;20810;-82
2021/11/25 04:15:31;;;;;;;10.30;8.07;;;4.40;99.90;;;;;;5034171;28;20418;-82
2021/11/25 04:17:56;;;;;;;9.30;7.70;;;4.30;99.90;;;;;;5034053;28;20187;-82
2021/11/25 04:20:23;;;;;;;12.53;7.97;;;4.30;99.90;;;;;;5033680;28;20524;-82
2021/11/25 04:22:49;;;;;;;12.83;8.67;;;4.30;99.90;;;;;;5033821;28;20681;-82
2021/11/25 04:25:15;;;;;;;10.60;7.27;;;4.30;99.90;;;;;;5033739;28;20415;-82
2021/11/25 04:27:42;;;;;;;10.13;8.70;;;4.30;99.90;;;;;;5033805;28;20426;-81
2021/11/25 04:37:58;;;;;;;10.70;8.40;;;4.30;99.90;;;;;;5034824;28;20415;-82
2021/11/25 04:40:24;;;;;;;11.53;8.37;;;4.20;99.90;;;;;;5032718;28;20539;-82
2021/11/25 04:42:49;;;;;;;12.10;8.13;;;4.30;99.90;;;;;;5032998;28;20742;-82
2021/11/25 04:45:15;;;;;;;15.30;8.80;;;4.40;99.90;;;;;;5032623;28;20172;-82
2021/11/25 04:47:41;;;;;;;11.53;8.37;;;4.40;99.90;;;;;;5032561;28;20220;-82
2021/11/25 04:50:08;;;;;;;10.90;8.70;;;4.40;99.90;;;;;;5032556;28;20457;-82
2021/11/25 04:52:33;;;;;;;16.07;9.27;;;4.40;99.90;;;;;;5053921;22;20499;-78
2021/11/25 04:54:59;;;;;;;11.47;9.33;;;4.40;99.90;;;;;;5031325;28;20999;-78
2021/11/25 04:57:25;;;;;;;13.30;9.23;;;4.40;99.90;;;;;;5032769;28;20273;-78
2021/11/25 04:59:50;;;;;;;11.00;9.20;;;4.50;99.90;;;;;;5031153;28;20203;-79
2021/11/25 05:02:16;;;;;;;9.70;7.77;;;4.60;99.90;;;;;;5031050;28;20255;-78
2021/11/25 05:04:41;;;;;;;10.10;8.00;;;4.70;99.90;;;;;;5031424;28;20207;-78
2021/11/25 05:07:07;;;;;;;11.77;7.63;;;4.70;99.90;;;;;;5032508;28;20187;-77
2021/11/25 05:09:33;;;;;;;10.87;7.80;;;4.80;99.90;;;;;;5032664;28;20202;-78
2021/11/25 05:11:58;;;;;;;10.93;8.40;;;4.80;99.90;;;;;;5031111;28;20250;-77
2021/11/25 05:14:24;;;;;;;12.23;9.40;;;4.80;99.90;;;;;;5031169;28;20279;-78
2021/11/25 05:16:50;;;;;;;11.30;8.50;;;4.80;99.90;;;;;;5033007;28;20185;-78
2021/11/25 05:19:17;;;;;;;12.80;8.87;;;4.70;99.90;;;;;;5034319;28;20753;-79
2021/11/25 05:21:43;;;;;;;15.30;9.50;;;4.80;99.90;;;;;;5034355;28;20189;-79
2021/11/25 05:24:10;;;;;;;11.60;8.60;;;4.80;99.90;;;;;;5032207;28;20488;-78
2021/11/25 05:26:35;;;;;;;13.77;9.37;;;4.90;99.90;;;;;;5033039;28;20776;-77
2021/11/25 05:29:01;;;;;;;12.20;8.63;;;4.90;99.90;;;;;;5033374;28;20419;-78
2021/11/25 05:31:27;;;;;;;16.37;11.23;;;4.90;99.90;;;;;;5031827;28;20340;-79
2021/11/25 05:33:52;;;;;;;11.37;8.37;;;4.90;99.90;;;;;;5032288;28;20176;-78
2021/11/25 05:36:18;;;;;;;13.13;10.30;;;4.90;99.90;;;;;;5032400;28;20186;-78
2021/11/25 05:38:44;;;;;;;12.00;9.87;;;4.90;99.90;;;;;;5031931;28;20636;-78
2021/11/25 05:41:09;;;;;;;15.47;10.10;;;4.90;99.90;;;;;;5031779;28;20259;-78
2021/11/25 05:43:35;;;;;;;15.67;9.70;;;4.80;99.90;;;;;;5030668;28;20548;-78
2021/11/25 05:46:01;;;;;;;14.70;11.37;;;4.80;99.90;;;;;;5030726;28;20587;-78
2021/11/25 05:48:27;;;;;;;14.40;10.47;;;4.60;99.90;;;;;;5031754;28;20560;-78
2021/11/25 05:50:53;;;;;;;15.70;11.53;;;4.60;99.90;;;;;;5031637;28;20436;-79
2021/11/25 05:53:20;;;;;;;15.50;11.20;;;4.60;99.90;;;;;;5030259;28;20443;-79
2021/11/25 05:55:47;;;;;;;15.07;11.13;;;4.70;99.90;;;;;;5032699;28;20557;-80
2021/11/25 05:58:13;;;;;;;16.50;12.60;;;4.70;99.90;;;;;;5030633;28;20430;-78
2021/11/25 06:00:38;;;;;;;17.23;11.60;;;4.60;99.90;;;;;;5031752;28;20410;-78
2021/11/25 06:03:04;;;;;;;13.70;10.47;;;4.60;99.90;;;;;;5030730;28;20443;-80
2021/11/25 06:05:30;;;;;;;15.20;11.73;;;4.60;99.90;;;;;;5030976;28;20177;-78
2021/11/25 06:07:59;;;;;;;19.13;12.67;;;4.60;99.90;;;;;;5030868;28;20183;-79
2021/11/25 06:10:25;;;;;;;16.10;11.67;;;4.70;99.90;;;;;;5030401;28;20189;-78
2021/11/25 06:12:52;;;;;;;17.00;12.30;;;4.70;99.90;;;;;;5032129;28;20897;-78
2021/11/25 06:15:19;;;;;;;15.57;11.93;;;4.70;99.90;;;;;;5032076;28;20412;-78
2021/11/25 06:17:44;;;;;;;18.37;13.50;;;4.70;99.90;;;;;;5030762;28;20423;-78
2021/11/25 06:20:11;;;;;;;17.57;12.60;;;4.60;99.90;;;;;;5030385;28;20486;-78
2021/11/25 06:22:41;;;;;;;14.30;11.73;;;4.60;99.90;;;;;;5031917;28;20196;-79
2021/11/25 06:25:09;;;;;;;18.87;12.73;;;4.60;99.90;;;;;;5030302;28;20415;-78
2021/11/25 06:27:35;;;;;;;18.43;14.20;;;4.50;99.90;;;;;;5031997;28;20558;-78
2021/11/25 06:30:04;;;;;;;19.07;12.53;;;4.50;99.90;;;;;;5031557;28;20946;-78
2021/11/25 06:32:30;;;;;;;18.70;13.80;;;4.60;99.90;;;;;;5030593;28;20440;-78
2021/11/25 06:34:55;;;;;;;17.33;12.43;;;4.60;99.90;;;;;;5031734;28;20422;-78
2021/11/25 06:37:21;;;;;;;18.33;12.60;;;4.50;99.90;;;;;;5032342;28;20180;-78
2021/11/25 06:39:46;;;;;;;20.20;14.40;;;4.50;99.90;;;;;;5034627;28;20199;-77
2021/11/25 06:42:12;;;;;;;18.80;13.20;;;4.50;99.90;;;;;;5035565;28;20248;-78
2021/11/25 06:44:37;;;;;;;16.93;12.30;;;4.50;99.90;;;;;;5035395;28;20226;-78
2021/11/25 06:47:03;;;;;;;18.00;13.53;;;4.30;99.90;;;;;;5035674;28;20171;-78
2021/11/25 06:49:29;;;;;;;21.90;13.47;;;4.20;99.90;;;;;;5035056;28;20228;-77
2021/11/25 06:51:54;;;;;;;19.83;12.83;;;4.10;99.90;;;;;;5034305;28;20454;-78
2021/11/25 06:54:20;;;;;;;16.50;11.30;;;4.00;99.90;;;;;;5033867;28;20195;-78
2021/11/25 06:56:45;;;;;;;17.00;13.30;;;3.90;99.90;;;;;;5033910;28;20191;-78
2021/11/25 06:59:11;;;;;;;16.17;11.53;;;3.80;99.90;;;;;;5033651;28;20707;-78
2021/11/25 07:01:38;;;;;;;18.70;13.20;;;3.60;99.90;;;;;;5035131;28;20556;-77
2021/11/25 07:04:03;;;;;;;17.40;11.53;;;3.50;99.90;;;;;;5034975;28;20172;-77
2021/11/25 07:06:29;;;;;;;19.90;13.80;;;3.40;99.90;;;;;;5033931;28;20456;-78
2021/11/25 07:08:54;;;;;;;17.27;12.27;;;3.40;99.90;;;;;;5033768;28;20267;-77
2021/11/25 07:11:20;;;;;;;19.10;13.30;;;3.30;99.90;;;;;;5034695;28;20289;-79
2021/11/25 07:13:46;;;;;;;23.27;14.03;;;3.20;99.90;;;;;;5033519;28;20571;-78
2021/11/25 07:16:11;;;;;;;19.73;14.20;;;3.10;99.90;;;;;;5033571;28;20187;-77
2021/11/25 07:18:37;;;;;;;23.30;14.60;;;3.10;99.90;;;;;;5033551;28;20288;-78
2021/11/25 07:21:03;;;;;;;20.10;14.70;;;3.10;99.90;;;;;;5034530;28;20214;-78
2021/11/25 07:23:28;;;;;;;18.67;13.90;;;3.10;99.90;;;;;;5033752;28;20364;-79
2021/11/25 07:25:54;;;;;;;23.20;13.53;;;3.10;99.90;;;;;;5034743;28;20190;-78
2021/11/25 07:28:19;;;;;;;21.10;14.10;;;3.10;99.90;;;;;;5033435;28;20183;-77
2021/11/25 07:30:45;;;;;;;19.30;13.87;;;3.10;99.90;;;;;;5034551;28;20296;-78
2021/11/25 07:33:11;;;;;;;23.70;14.00;;;3.10;99.90;;;;;;5034648;28;20646;-78
2021/11/25 07:35:43;;;;;;;17.93;13.30;;;3.10;99.90;;;;;;5034748;28;20190;-78
2021/11/25 07:38:08;;;;;;;20.23;13.67;;;3.20;99.90;;;;;;5034451;28;20195;-78
2021/11/25 07:40:34;;;;;;;18.60;13.70;;;3.20;99.90;;;;;;5034266;28;20422;-77
2021/11/25 07:43:01;;;;;;;21.83;12.73;;;3.20;99.90;;;;;;5034243;28;20226;-78
2021/11/25 07:45:27;;;;;;;21.17;13.07;;;3.20;99.90;;;;;;5034503;28;20415;-77
2021/11/25 07:47:53;;;;;;;18.63;12.90;;;3.30;99.90;;;;;;5034214;28;20497;-78
2021/11/25 07:50:20;;;;;;;18.33;12.20;;;3.30;99.90;;;;;;5032107;28;20498;-78
2021/11/25 07:52:47;;;;;;;17.70;12.60;;;3.30;99.90;;;;;;5034127;28;20204;-78
2021/11/25 07:55:14;;;;;;;18.40;11.43;;;3.30;99.90;;;;;;5034405;28;20419;-77
2021/11/25 07:57:40;;;;;;;19.97;12.70;;;3.30;99.90;;;;;;5032744;28;20940;-78
2021/11/25 08:00:07;;;;;;;16.33;11.97;;;3.30;99.90;;;;;;5033923;28;20504;-79
2021/11/25 08:02:33;;;;;;;15.50;11.40;;;3.40;99.90;;;;;;5033794;28;20736;-80
2021/11/25 08:05:00;;;;;;;15.57;11.07;;;3.40;99.90;;;;;;5035086;28;20430;-79
2021/11/25 08:07:25;;;;;;;19.40;13.13;;;3.40;99.90;;;;;;5035996;28;20553;-80
2021/11/25 08:09:51;;;;;;;18.20;11.97;;;3.40;99.90;;;;;;5035617;28;20415;-79
2021/11/25 08:12:17;;;;;;;20.67;13.27;;;3.40;99.90;;;;;;5035855;28;20203;-80
2021/11/25 08:14:42;;;;;;;21.13;13.07;;;3.50;99.90;;;;;;5035394;28;20191;-80
2021/11/25 08:17:10;;;;;;;16.80;12.63;;;3.60;99.90;;;;;;5035770;28;20324;-80
2021/11/25 08:19:36;;;;;;;20.30;13.73;;;3.60;99.90;;;;;;5035203;28;20206;-80
2021/11/25 08:22:01;;;;;;;17.60;12.47;;;3.60;99.90;;;;;;5035708;28;20442;-79
2021/11/25 08:24:27;;;;;;;19.17;12.93;;;3.50;99.90;;;;;;5033940;28;20429;-79
2021/11/25 08:26:53;;;;;;;18.00;13.17;;;3.60;99.90;;;;;;5035460;28;20184;-80
2021/11/25 08:29:19;;;;;;;17.70;12.50;;;3.70;99.90;;;;;;5035208;28;20218;-80
2021/11/25 08:31:45;;;;;;;20.70;13.23;;;3.80;99.90;;;;;;5035017;28;20451;-79
2021/11/25 08:34:10;;;;;;;18.60;12.30;;;3.90;99.90;;;;;;5034958;28;20208;-80
2021/11/25 08:36:36;;;;;;;18.77;13.07;;;3.80;99.90;;;;;;5035366;28;20216;-79
2021/11/25 08:39:02;;;;;;;20.93;13.33;;;3.90;99.90;;;;;;5034734;28;20214;-79
2021/11/25 08:41:28;;;;;;;23.10;14.20;;;4.00;99.90;;;;;;5034848;28;20734;-78
2021/11/25 08:43:54;;;;;;;19.77;12.77;;;4.00;99.90;;;;;;5034919;28;20433;-79
2021/11/25 08:46:19;;;;;;;19.27;13.93;;;4.10;99.90;;;;;;5035085;28;20180;-79
2021/11/25 08:48:45;;;;;;;21.63;13.43;;;4.10;99.90;;;;;;5033308;28;20188;-81
2021/11/25 08:51:11;;;;;;;17.47;13.17;;;4.20;99.90;;;;;;5026439;28;20270;-81
2021/11/25 08:53:37;;;;;;;21.17;12.60;;;4.30;99.90;;;;;;5020345;28;20197;-80
2021/11/25 08:56:05;;;;;;;21.00;14.60;;;4.40;99.90;;;;;;5013185;28;20880;-81
2021/11/25 08:58:31;;;;;;;19.47;13.07;;;4.20;99.90;;;;;;5014423;28;20579;-80
2021/11/25 09:00:56;;;;;;;25.17;15.03;;;4.30;99.90;;;;;;5013626;28;20446;-81
2021/11/25 09:03:22;;;;;;;19.30;14.00;;;4.40;99.90;;;;;;5013567;28;20600;-82
2021/11/25 09:05:48;;;;;;;21.70;13.70;;;4.50;99.90;;;;;;5012536;28;20181;-82
2021/11/25 09:08:13;;;;;;;23.50;14.73;;;4.60;99.90;;;;;;5012532;28;20212;-82
2021/11/25 09:10:39;;;;;;;21.93;14.87;;;4.50;99.90;;;;;;5024443;28;20585;-80
2021/11/25 09:13:06;;;;;;;19.83;13.17;;;4.60;99.90;;;;;;5031778;28;20177;-82
2021/11/25 09:15:33;;;;;;;22.30;13.80;;;4.70;99.90;;;;;;5031536;28;20183;-80
2021/11/25 09:18:01;;;;;;;18.50;13.63;;;4.80;99.90;;;;;;5032227;28;20423;-81
2021/11/25 09:20:33;;;;;;;18.53;13.20;;;4.90;99.90;;;;;;5032906;28;20477;-79
2021/11/25 09:23:01;;;;;;;18.17;13.00;;;4.90;99.90;;;;;;5033128;28;20431;-81
2021/11/25 09:25:27;;;;;;;20.83;13.70;;;5.00;99.90;;;;;;5031886;28;20478;-80
2021/11/25 09:27:53;;;;;;;19.53;13.27;;;5.00;99.90;;;;;;5033626;28;20413;-80
2021/11/25 09:30:18;;;;;;;19.17;13.10;;;5.10;99.90;;;;;;5031725;28;20935;-79
2021/11/25 09:32:44;;;;;;;18.57;14.23;;;5.30;99.90;;;;;;5032871;28;20214;-78
2021/11/25 09:35:10;;;;;;;20.43;14.27;;;5.60;99.90;;;;;;5032745;28;20184;-80
2021/11/25 09:37:35;;;;;;;22.57;16.03;;;6.00;99.90;;;;;;5031690;28;20214;-80
2021/11/25 09:40:01;;;;;;;21.57;14.60;;;6.40;99.90;;;;;;5032744;28;20209;-79
2021/11/25 09:42:27;;;;;;;22.77;15.43;;;6.50;99.90;;;;;;5023201;28;20207;-79
2021/11/25 09:44:53;;;;;;;19.17;15.30;;;6.70;99.90;;;;;;5022655;28;20434;-81
2021/11/25 09:47:19;;;;;;;18.30;14.00;;;6.90;99.90;;;;;;5032307;28;20183;-81
2021/11/25 09:49:45;;;;;;;20.93;15.30;;;7.10;99.90;;;;;;5030828;28;20434;-81
2021/11/25 09:52:11;;;;;;;21.67;15.53;;;7.20;99.90;;;;;;5024226;28;20750;-81
2021/11/25 09:54:37;;;;;;;22.40;16.70;;;7.40;99.90;;;;;;5010702;28;20435;-81
2021/11/25 09:57:02;;;;;;;24.53;16.40;;;7.30;99.90;;;;;;5010773;28;20578;-79
2021/11/25 09:59:28;;;;;;;23.37;15.57;;;7.30;99.90;;;;;;5014662;28;20973;-81
2021/11/25 10:01:54;;;;;;;23.17;16.10;;;7.30;99.90;;;;;;5022086;28;20698;-82
2021/11/25 10:04:20;;;;;;;22.03;16.63;;;7.20;99.90;;;;;;5028575;28;20191;-84
2021/11/25 10:06:53;;;;;;;23.77;17.17;;;6.90;99.90;;;;;;5030799;28;20426;-82
2021/11/25 10:09:40;;;;;;;24.23;16.33;;;6.90;99.90;;;;;;5030372;28;20423;-83
2021/11/25 10:12:37;;;;;;;26.43;17.53;;;7.00;99.90;;;;;;5030121;28;20454;-80
2021/11/25 10:15:24;;;;;;;27.83;17.80;;;7.00;99.90;;;;;;5034044;28;20426;-80
2021/11/25 10:17:52;;;;;;;24.10;17.53;;;6.90;99.90;;;;;;5035397;28;20410;-80
2021/11/25 10:20:21;;;;;;;24.17;17.53;;;6.80;99.90;;;;;;5033847;28;20497;-80
2021/11/25 10:23:19;;;;;;;23.87;17.20;;;6.80;99.90;;;;;;5034333;28;20450;-80
2021/11/25 10:25:50;;;;;;;22.10;15.70;;;6.80;99.90;;;;;;5023092;28;20426;-80
2021/11/25 10:28:51;;;;;;;25.87;17.10;;;6.80;99.90;;;;;;5034524;28;20808;-80
2021/11/25 10:31:23;;;;;;;24.03;17.20;;;6.90;99.90;;;;;;5022023;28;20458;-80
2021/11/25 10:34:18;;;;;;;24.93;16.73;;;7.10;99.90;;;;;;5034167;28;20492;-80
2021/11/25 10:39:29;;;;;;;27.13;17.60;;;7.40;99.90;;;;;;5035028;28;20579;-80
2021/11/25 10:41:57;;;;;;;26.83;17.53;;;7.40;99.90;;;;;;5035164;28;20453;-80
2021/11/25 10:44:29;;;;;;;27.27;18.00;;;7.40;99.90;;;;;;5035255;28;20414;-80
2021/11/25 10:47:05;;;;;;;25.33;18.80;;;7.30;99.90;;;;;;5035230;28;20968;-80
2021/11/25 10:49:50;;;;;;;28.80;18.43;;;7.20;99.90;;;;;;5033759;28;20437;-80
2021/11/25 10:52:30;;;;;;;27.23;18.63;;;7.00;99.90;;;;;;5069408;22;21753;-80
2021/11/25 10:54:55;;;;;;;24.93;19.00;;;7.10;99.90;;;;;;5033638;28;20561;-80
2021/11/25 10:57:23;;;;;;;23.13;16.87;;;7.00;99.90;;;;;;5033664;28;20498;-80
2021/11/25 10:59:52;;;;;;;26.27;17.87;;;7.10;99.90;;;;;;5033430;28;20215;-80
2021/11/25 11:02:30;;;;;;;27.90;17.70;;;7.00;99.90;;;;;;5034567;28;20446;-80
2021/11/25 11:04:59;;;;;;;29.00;19.00;;;7.00;99.90;;;;;;5034691;28;20407;-80
2021/11/25 11:07:36;;;;;;;27.47;18.07;;;6.90;99.90;;;;;;5033390;28;20430;-80
2021/11/25 11:10:21;;;;;;;25.50;18.40;;;6.90;99.90;;;;;;5033193;28;20912;-80
2021/11/25 11:20:37;;;;;;;25.70;17.47;;;6.70;99.90;;;;;;5034406;28;20212;-80
2021/11/25 11:23:07;;;;;;;29.60;17.00;;;6.70;99.90;;;;;;5032589;28;20457;-80
2021/11/25 11:25:34;;;;;;;27.77;18.30;;;6.80;99.90;;;;;;5033401;28;20419;-80
2021/11/25 11:28:02;;;;;;;28.67;18.23;;;6.90;99.90;;;;;;5034600;28;20445;-80
2021/11/25 11:30:28;;;;;;;27.37;16.90;;;6.90;99.90;;;;;;5034075;28;20411;-80
2021/11/25 11:32:55;;;;;;;27.97;16.77;;;6.80;99.90;;;;;;5033965;28;20477;-80
2021/11/25 11:35:23;;;;;;;25.77;16.27;;;7.00;99.90;;;;;;5034087;28;20187;-80
2021/11/25 11:37:55;;;;;;;23.10;16.13;;;7.00;99.90;;;;;;5033933;28;20422;-81
2021/11/25 11:40:23;;;;;;;23.47;15.30;;;7.10;99.90;;;;;;5034347;28;20459;-80
2021/11/25 11:42:50;;;;;;;25.00;15.40;;;7.10;99.90;;;;;;5034489;28;20432;-80
2021/11/25 11:45:17;;;;;;;21.80;15.37;;;7.10;99.90;;;;;;5033290;28;20415;-80
2021/11/25 11:47:43;;;;;;;21.73;14.90;;;7.20;99.90;;;;;;5033169;28;20414;-81
2021/11/25 11:50:10;;;;;;;19.50;12.93;;;7.30;99.90;;;;;;5034176;28;20467;-81
2021/11/25 11:53:00;;;;;;;23.17;13.83;;;7.30;99.90;;;;;;5033978;28;20447;-80
2021/11/25 11:55:39;;;;;;;22.47;14.07;;;7.40;99.90;;;;;;5034371;28;20509;-80
2021/11/25 11:58:29;;;;;;;22.77;13.40;;;7.40;99.90;;;;;;5034269;28;20960;-80
2021/11/25 12:00:58;;;;;;;24.80;13.73;;;7.40;99.90;;;;;;5034074;28;20454;-81
2021/11/25 12:03:40;;;;;;;23.73;14.87;;;7.40;99.90;;;;;;5032654;28;20489;-79
2021/11/25 12:06:07;;;;;;;20.00;13.77;;;7.50;99.90;;;;;;5034297;28;20422;-79
2021/11/25 12:08:35;;;;;;;25.10;15.90;;;7.50;99.90;;;;;;5033746;28;20415;-80
2021/11/25 12:11:01;;;;;;;20.57;12.43;;;7.60;99.90;;;;;;5032209;28;20411;-78
2021/11/25 12:13:29;;;;;;;18.83;13.00;;;7.60;99.90;;;;;;5033780;28;20506;-78
2021/11/25 12:16:35;;;;;;;27.17;14.73;;;9.30;99.90;;;;;;5034169;28;20176;-79
2021/11/25 12:19:05;;;;;;;19.10;14.60;;;10.00;99.90;;;;;;4953161;28;20455;-79
2021/11/25 12:21:48;;;;;;;19.37;12.80;;;11.20;99.90;;;;;;4951450;29;20434;-79
2021/11/25 12:24:53;;;;;;;23.10;12.93;;;11.60;99.90;;;;;;4981590;28;20810;-79
2021/11/25 12:27:26;;;;;;;19.90;13.33;;;11.40;99.90;;;;;;4970390;28;20426;-80
2021/11/25 12:29:59;;;;;;;20.00;14.93;;;11.40;99.90;;;;;;5011644;28;20860;-79
2021/11/25 12:32:35;;;;;;;21.77;13.50;;;11.30;99.90;;;;;;5013170;28;20910;-79
2021/11/25 12:35:24;;;;;;;22.90;16.90;;;10.90;99.90;;;;;;5012978;28;20895;-79
2021/11/25 12:37:58;;;;;;;22.27;14.70;;;11.10;99.90;;;;;;5011947;28;20435;-81
2021/11/25 12:40:24;;;;;;;21.97;11.97;;;11.20;99.90;;;;;;5011168;28;20801;-79
2021/11/25 12:43:00;;;;;;;17.97;12.93;;;11.10;99.90;;;;;;5013219;28;20439;-79
2021/11/25 12:45:36;;;;;;;18.93;15.00;;;10.80;99.90;;;;;;5013039;28;20216;-79
2021/11/25 12:48:04;;;;;;;21.67;13.37;;;10.50;99.90;;;;;;5013213;28;20644;-79
2021/11/25 12:50:32;;;;;;;20.43;13.37;;;10.30;99.90;;;;;;5012504;28;20416;-78
2021/11/25 12:53:08;;;;;;;21.37;14.00;;;10.10;99.90;;;;;;5012806;28;20452;-79
2021/11/25 12:55:34;;;;;;;20.20;14.47;;;9.60;99.90;;;;;;5012128;28;20448;-80
2021/11/25 12:57:59;;;;;;;22.83;14.33;;;9.30;99.90;;;;;;5012343;28;20447;-79
2021/11/25 13:00:28;;;;;;;16.13;13.83;;;9.30;99.90;;;;;;5011945;28;20469;-78
2021/11/25 13:03:18;;;;;;;23.93;17.13;;;9.00;99.90;;;;;;5033800;28;20192;-79